createdAt,value
2022-10-28T00:02:34.270Z,77.50
2022-10-28T00:08:02.081Z,77.70
2022-10-28T00:13:30.102Z,77.70
2022-10-28T00:19:02.382Z,77.80
2022-10-28T00:24:30.386Z,77.80
2022-10-28T00:29:58.303Z,78.00
2022-10-28T00:35:26.125Z,78.00
2022-10-28T00:40:54.017Z,78.10
2022-10-28T00:46:41.045Z,78.10
2022-10-28T00:52:16.466Z,78.30
2022-10-28T00:57:46.108Z,78.30
2022-10-28T01:03:14.046Z,78.40
2022-10-28T01:08:41.861Z,78.50
2022-10-28T01:14:30.844Z,78.50
2022-10-28T01:20:36.072Z,78.70
2022-10-28T01:26:19.585Z,78.70
2022-10-28T01:31:56.304Z,78.80
2022-10-28T01:38:15.220Z,78.80
2022-10-28T01:44:10.250Z,78.90
2022-10-28T01:50:25.454Z,79.00
2022-10-28T01:55:59.823Z,79.00
2022-10-28T02:01:30.391Z,79.00
2022-10-28T02:07:00.749Z,79.10
2022-10-28T02:12:38.514Z,79.20
2022-10-28T02:19:07.264Z,79.10
2022-10-28T02:25:13.578Z,79.20
2022-10-28T02:30:52.061Z,79.20
2022-10-28T02:36:23.362Z,79.30
2022-10-28T02:42:14.161Z,79.40
2022-10-28T02:47:50.138Z,80.00
2022-10-28T02:58:59.966Z,79.40
2022-10-28T03:04:27.861Z,79.40
2022-10-28T03:09:55.633Z,79.40
2022-10-28T03:15:23.470Z,79.50
2022-10-28T03:20:54.288Z,79.50
2022-10-28T03:26:24.546Z,80.60
2022-10-28T03:31:52.420Z,80.60
2022-10-28T03:37:20.341Z,80.70
2022-10-28T03:42:48.154Z,80.70
2022-10-28T03:48:15.977Z,80.80
2022-10-28T03:53:43.760Z,80.70
2022-10-28T03:59:13.227Z,80.80
2022-10-28T04:04:43.021Z,79.80
2022-10-28T04:10:12.015Z,79.80
2022-10-28T04:15:39.810Z,79.90
2022-10-28T04:21:08.091Z,79.90
2022-10-28T04:26:35.858Z,79.90
2022-10-28T04:32:03.864Z,80.00
2022-10-28T04:37:31.624Z,80.00
2022-10-28T04:42:59.442Z,80.00
2022-10-28T04:48:27.400Z,80.10
2022-10-28T04:53:55.343Z,80.10
2022-10-28T04:59:23.231Z,80.10
2022-10-28T05:04:51.003Z,80.10
2022-10-28T05:10:18.759Z,80.10
2022-10-28T05:15:49.423Z,80.20
2022-10-28T05:21:17.550Z,80.20
2022-10-28T05:26:45.505Z,80.10
2022-10-28T05:32:13.387Z,80.10
2022-10-28T05:37:41.181Z,80.10
2022-10-28T05:43:10.470Z,80.30
2022-10-28T05:48:38.644Z,80.30
2022-10-28T05:54:06.481Z,80.20
2022-10-28T05:59:34.287Z,80.30
2022-10-28T06:05:02.172Z,80.20
2022-10-28T06:10:29.957Z,80.20
2022-10-28T06:15:56.493Z,80.30
2022-10-28T06:21:24.380Z,80.30
2022-10-28T06:26:52.220Z,80.30
2022-10-28T06:32:20.141Z,80.20
2022-10-28T06:37:53.416Z,80.30
2022-10-28T06:43:21.489Z,80.90
2022-10-28T06:48:50.881Z,80.30
2022-10-28T06:54:20.923Z,80.40
2022-10-28T06:59:50.136Z,80.30
2022-10-28T07:05:17.957Z,80.40
2022-10-28T07:10:57.354Z,80.40
2022-10-28T07:16:25.221Z,80.50
2022-10-28T07:21:52.925Z,80.40
2022-10-28T07:27:20.874Z,80.60
2022-10-28T07:32:48.971Z,80.50
2022-10-28T07:38:16.804Z,80.40
2022-10-28T07:43:44.583Z,80.40
2022-10-28T07:49:12.347Z,80.30
2022-10-28T07:54:40.157Z,80.40
2022-10-28T08:00:08.589Z,81.00
2022-10-28T08:05:39.225Z,80.40
2022-10-28T08:11:19.798Z,80.20
2022-10-28T08:16:47.626Z,80.20
2022-10-28T08:22:15.641Z,80.10
2022-10-28T08:27:43.487Z,79.80
2022-10-28T08:33:11.688Z,79.80
2022-10-28T08:38:45.166Z,79.70
2022-10-28T08:45:04.658Z,79.80
2022-10-28T08:50:40.636Z,79.80
2022-10-28T08:56:30.792Z,79.40
2022-10-28T09:02:22.657Z,79.50
2022-10-28T09:07:52.009Z,79.50
2022-10-28T09:13:34.554Z,79.80
2022-10-28T09:19:38.637Z,79.10
2022-10-28T09:25:25.952Z,79.00
2022-10-28T09:31:02.985Z,78.70
2022-10-28T09:36:53.635Z,78.60
2022-10-28T09:42:28.046Z,78.40
2022-10-28T09:48:17.163Z,78.30
2022-10-28T09:53:56.952Z,78.30
2022-10-28T09:59:25.055Z,77.80
2022-10-28T10:04:58.979Z,77.60
2022-10-28T10:11:03.819Z,77.40
2022-10-28T10:16:39.959Z,77.20
2022-10-28T10:22:07.729Z,77.10
2022-10-28T10:27:35.514Z,76.70
2022-10-28T10:33:04.286Z,76.40
2022-10-28T10:38:33.129Z,76.00
2022-10-28T10:44:01.047Z,75.50
2022-10-28T10:49:31.093Z,75.30
2022-10-28T10:55:05.734Z,75.00
2022-10-28T11:00:39.376Z,74.70
2022-10-28T11:06:28.136Z,74.00
2022-10-28T11:11:56.427Z,73.40
2022-10-28T11:23:46.229Z,72.20
2022-10-28T11:29:17.595Z,72.00
2022-10-28T11:35:28.276Z,71.50
2022-10-28T11:41:30.939Z,71.00
2022-10-28T11:47:14.613Z,71.00
2022-10-28T11:53:05.341Z,70.80
2022-10-28T11:59:02.083Z,70.60
2022-10-28T12:05:09.238Z,70.60
2022-10-28T12:10:43.221Z,70.50
2022-10-28T12:16:58.730Z,70.40
2022-10-28T12:22:50.475Z,70.30
2022-10-28T12:28:54.237Z,70.10
2022-10-28T12:34:32.947Z,69.60
2022-10-28T12:40:29.822Z,68.90
2022-10-28T12:45:58.450Z,68.30
2022-10-28T12:51:34.474Z,67.80
2022-10-28T12:57:14.899Z,67.40
2022-10-28T13:03:10.333Z,66.50
2022-10-28T13:08:49.233Z,65.90
2022-10-28T13:21:34.988Z,65.30
2022-10-28T13:27:05.948Z,64.80
2022-10-28T13:32:38.829Z,63.50
2022-10-28T13:38:12.302Z,60.30
2022-10-28T13:43:50.305Z,57.70
2022-10-28T13:49:28.236Z,56.00
2022-10-28T13:55:00.786Z,54.30
2022-10-28T14:06:01.803Z,52.90
2022-10-28T14:11:32.477Z,52.50
2022-10-28T14:17:00.322Z,53.40
2022-10-28T14:22:35.068Z,53.40
2022-10-28T14:28:32.839Z,53.50
2022-10-28T14:34:00.592Z,53.90
2022-10-28T14:40:02.443Z,54.20
2022-10-28T14:45:41.006Z,53.90
2022-10-28T14:51:16.120Z,53.80
2022-10-28T14:56:45.358Z,54.60
2022-10-28T15:02:27.852Z,55.40
2022-10-28T15:07:58.240Z,55.80
2022-10-28T15:13:26.779Z,56.20
2022-10-28T15:18:54.949Z,56.50
2022-10-28T15:24:22.830Z,57.00
2022-10-28T15:29:51.463Z,57.40
2022-10-28T15:35:32.875Z,57.90
2022-10-28T15:41:00.950Z,58.20
2022-10-28T15:46:32.605Z,58.60
2022-10-28T15:52:18.797Z,59.00
2022-10-28T15:58:03.134Z,59.30
2022-10-28T16:03:40.238Z,59.80
2022-10-28T16:09:14.305Z,60.10
2022-10-28T16:14:49.341Z,60.60
2022-10-28T16:20:27.728Z,60.90
2022-10-28T16:25:55.684Z,61.10
2022-10-28T16:31:28.529Z,61.30
2022-10-28T16:36:56.472Z,61.60
2022-10-28T16:42:24.987Z,61.90
2022-10-28T16:47:53.218Z,62.10
2022-10-28T16:53:21.416Z,62.60
2022-10-28T16:58:49.409Z,62.80
2022-10-28T17:04:17.213Z,63.00
2022-10-28T17:09:47.788Z,63.30
2022-10-28T17:15:15.798Z,63.40
2022-10-28T17:20:43.766Z,63.60
2022-10-28T17:26:11.725Z,63.80
2022-10-28T17:31:39.565Z,64.00
2022-10-28T17:37:07.948Z,64.20
2022-10-28T17:42:35.934Z,64.30
2022-10-28T17:48:04.247Z,64.60
2022-10-28T17:53:32.376Z,64.70
2022-10-28T17:59:04.357Z,65.00
2022-10-28T18:04:33.263Z,65.10
2022-10-28T18:10:01.048Z,66.10
2022-10-28T18:15:28.920Z,65.70
2022-10-28T18:20:57.914Z,66.00
2022-10-28T18:26:25.644Z,66.20
2022-10-28T18:31:53.477Z,66.40
2022-10-28T18:37:22.068Z,66.60
2022-10-28T18:42:50.116Z,67.00
2022-10-28T18:48:18.652Z,67.20
2022-10-28T18:53:48.499Z,67.50
2022-10-28T18:59:16.528Z,68.00
2022-10-28T19:04:44.495Z,68.10
2022-10-28T19:10:12.525Z,68.50
2022-10-28T19:15:47.382Z,68.60
2022-10-28T19:21:16.757Z,68.90
2022-10-28T19:26:44.525Z,69.20
2022-10-28T19:32:12.280Z,69.50
2022-10-28T19:37:40.154Z,69.70
2022-10-28T19:43:08.141Z,69.90
2022-10-28T19:48:36.570Z,70.20
2022-10-28T19:54:12.129Z,70.50
2022-10-28T19:59:39.952Z,70.90
2022-10-28T20:05:08.228Z,71.00
2022-10-28T20:10:36.026Z,71.00
2022-10-28T20:16:10.660Z,71.20
2022-10-28T20:21:39.378Z,71.40
2022-10-28T20:27:07.342Z,71.60
2022-10-28T20:32:36.416Z,71.70
2022-10-28T20:38:04.267Z,71.90
2022-10-28T20:43:32.136Z,72.00
2022-10-28T20:49:01.002Z,72.10
2022-10-28T20:54:28.780Z,72.30
2022-10-28T20:59:56.630Z,72.30
2022-10-28T21:05:24.446Z,72.60
2022-10-28T21:10:52.423Z,72.50
2022-10-28T21:16:21.730Z,72.70
2022-10-28T21:21:49.626Z,72.90
2022-10-28T21:27:17.404Z,72.90
2022-10-28T21:32:45.350Z,73.00
2022-10-28T21:38:13.185Z,73.10
2022-10-28T21:43:44.014Z,73.10
2022-10-28T21:49:11.896Z,73.20
2022-10-28T21:54:39.678Z,73.30
2022-10-28T22:00:08.834Z,73.20
2022-10-28T22:05:50.760Z,73.20
2022-10-28T22:11:21.428Z,73.10
2022-10-28T22:16:49.393Z,73.10
2022-10-28T22:22:17.160Z,72.90
2022-10-28T22:27:45.147Z,72.80
2022-10-28T22:33:13.077Z,72.80
2022-10-28T22:38:41.651Z,72.70
2022-10-28T22:44:09.597Z,72.50
2022-10-28T22:49:37.486Z,72.40
2022-10-28T22:55:05.899Z,72.20
2022-10-28T23:00:34.797Z,72.20
2022-10-28T23:06:02.845Z,71.90
2022-10-28T23:11:31.219Z,71.80
2022-10-28T23:16:59.841Z,71.80
2022-10-28T23:22:29.574Z,71.70
2022-10-28T23:27:57.949Z,71.60
2022-10-28T23:33:26.068Z,71.60
2022-10-28T23:38:57.079Z,71.40
2022-10-28T23:44:24.875Z,71.50
2022-10-28T23:49:53.059Z,71.50
2022-10-28T23:55:21.973Z,71.40
